Time;durP1;ratioP1;P1;durP2;ratioP2;P2;SDS_P1;SDS_P2;PMS_P1;PMS_P2;Temp;Humidity;BMP_temperature;BMP_pressure;BME280_temperature;BME280_humidity;BME280_pressure;Samples;Min_cycle;Max_cycle;Signal;HPM_P1;HPM_P2
2023/09/28 00:00:55;;;;;;;;;;;;;;;;;;6265666;28;19994;-76
2023/09/28 00:03:36;;;;;;;;;;;;;;;;;;6251953;28;19929;-75
2023/09/28 00:06:36;;;;;;;;;;;;;;;;;;6258306;28;19924;-75
2023/09/28 00:09:36;;;;;;;;;;;;;;;;;;6258061;28;19945;-76
2023/09/28 00:12:37;;;;;;;;;;;;;;;;;;6263592;28;19935;-76
2023/09/28 00:15:37;;;;;;;;;;;;;;;;;;6258587;28;19912;-76
2023/09/28 00:18:38;;;;;;;;;;;;;;;;;;6251569;28;19921;-76
2023/09/28 00:21:39;;;;;;;;;;;;;;;;;;6254803;28;19928;-76
2023/09/28 00:24:39;;;;;;;;;;;;;;;;;;6262118;28;19913;-76
2023/09/28 00:27:39;;;;;;;;;;;;;;;;;;6259711;28;19913;-76
2023/09/28 00:30:39;;;;;;;;;;;;;;;;;;6258637;28;19913;-76
2023/09/28 00:33:42;;;;;;;;;;;;;;;;;;6255703;28;19920;-76
2023/09/28 00:36:42;;;;;;;;;;;;;;;;;;6257990;28;19920;-76
2023/09/28 00:39:42;;;;;;;;;;;;;;;;;;6247474;28;19924;-77
2023/09/28 00:42:43;;;;;;;;;;;;;;;;;;6251354;28;19999;-77
2023/09/28 00:45:43;;;;;;;;;;;;;;;;;;6259404;28;19913;-76
2023/09/28 00:48:43;;;;;;;;;;;;;;;;;;6255124;28;19917;-76
2023/09/28 00:51:44;;;;;;;;;;;;;;;;;;6250091;28;19919;-76
2023/09/28 00:54:44;;;;;;;;;;;;;;;;;;6252262;28;21134;-76
2023/09/28 00:57:44;;;;;;;;;;;;;;;;;;6250073;28;20043;-76
2023/09/28 01:00:44;;;;;;;;;;;;;;;;;;6251578;28;20002;-76
2023/09/28 01:03:45;;;;;;;;;;;;;;;;;;6273162;28;20074;-76
2023/09/28 01:06:47;;;;;;;;;;;;;;;;;;6277426;28;19948;-75
2023/09/28 01:09:47;;;;;;;;;;;;;;;;;;6280177;28;19927;-75
2023/09/28 01:12:48;;;;;;;;;;;;;;;;;;6267826;28;19939;-76
2023/09/28 01:15:49;;;;;;;;;;;;;;;;;;6283711;28;19974;-76
2023/09/28 01:18:49;;;;;;;;;;;;;;;;;;6282090;28;20014;-76
2023/09/28 01:21:50;;;;;;;;;;;;;;;;;;6286576;28;19955;-76
2023/09/28 01:24:50;;;;;;;;;;;;;;;;;;6273781;28;19913;-76
2023/09/28 01:27:52;;;;;;;;;;;;;;;;;;6271519;28;19932;-75
2023/09/28 01:30:52;;;;;;;;;;;;;;;;;;6287330;28;19920;-76
2023/09/28 01:33:52;;;;;;;;;;;;;;;;;;6284881;28;19935;-75
2023/09/28 01:36:54;;;;;;;;;;;;;;;;;;6287860;28;20410;-75
2023/09/28 01:39:54;;;;;;;;;;;;;;;;;;6272856;28;19920;-76
2023/09/28 01:42:54;;;;;;;;;;;;;;;;;;6287389;28;19936;-77
2023/09/28 01:45:54;;;;;;;;;;;;;;;;;;6267277;28;20351;-77
2023/09/28 01:48:55;;;;;;;;;;;;;;;;;;6283164;28;20311;-76
2023/09/28 01:51:55;;;;;;;;;;;;;;;;;;6288259;28;20386;-76
2023/09/28 01:54:55;;;;;;;;;;;;;;;;;;6287369;28;20010;-76
2023/09/28 01:57:55;;;;;;;;;;;;;;;;;;6269876;28;19994;-75
2023/09/28 02:00:57;;;;;;;;;;;;;;;;;;6286188;28;19970;-75
2023/09/28 02:03:57;;;;;;;;;;;;;;;;;;6283558;28;19924;-75
2023/09/28 02:06:58;;;;;;;;;;;;;;;;;;6287414;28;20434;-75
2023/09/28 02:09:58;;;;;;;;;;;;;;;;;;6283459;28;19913;-74
2023/09/28 02:12:58;;;;;;;;;;;;;;;;;;6270856;28;19913;-77
2023/09/28 02:15:58;;;;;;;;;;;;;;;;;;6284889;28;19920;-77
2023/09/28 02:18:58;;;;;;;;;;;;;;;;;;6287025;28;19925;-77
2023/09/28 02:21:58;;;;;;;;;;;;;;;;;;6274724;28;19924;-74
2023/09/28 02:24:59;;;;;;;;;;;;;;;;;;6286402;28;20375;-76
2023/09/28 02:28:00;;;;;;;;;;;;;;;;;;6287508;28;20366;-77
2023/09/28 02:31:00;;;;;;;;;;;;;;;;;;6272476;28;20341;-74
2023/09/28 02:34:00;;;;;;;;;;;;;;;;;;6286910;28;19923;-75
2023/09/28 02:37:01;;;;;;;;;;;;;;;;;;6285083;28;20031;-75
2023/09/28 02:40:04;;;;;;;;;;;;;;;;;;6288410;28;19917;-76
2023/09/28 02:43:04;;;;;;;;;;;;;;;;;;6288314;28;19927;-76
2023/09/28 02:46:05;;;;;;;;;;;;;;;;;;6270180;28;19912;-75
2023/09/28 02:49:07;;;;;;;;;;;;;;;;;;6255307;28;20017;-75
2023/09/28 02:52:07;;;;;;;;;;;;;;;;;;6271341;28;20320;-75
2023/09/28 02:55:08;;;;;;;;;;;;;;;;;;6282463;28;19978;-76
2023/09/28 02:58:08;;;;;;;;;;;;;;;;;;6270101;28;19935;-75
2023/09/28 03:01:11;;;;;;;;;;;;;;;;;;6283254;28;19936;-77
2023/09/28 03:04:11;;;;;;;;;;;;;;;;;;6283063;28;19912;-75
2023/09/28 03:07:12;;;;;;;;;;;;;;;;;;6286049;28;20253;-75
2023/09/28 03:10:13;;;;;;;;;;;;;;;;;;6283441;28;19920;-75
2023/09/28 03:13:13;;;;;;;;;;;;;;;;;;6257413;28;19924;-76
2023/09/28 03:16:13;;;;;;;;;;;;;;;;;;6270313;28;20022;-76
2023/09/28 03:19:13;;;;;;;;;;;;;;;;;;6286743;28;20418;-76
2023/09/28 03:22:14;;;;;;;;;;;;;;;;;;6284175;28;20003;-76
2023/09/28 03:25:18;;;;;;;;;;;;;;;;;;6282802;28;19920;-78
2023/09/28 03:28:18;;;;;;;;;;;;;;;;;;6264879;28;19923;-76
2023/09/28 03:31:18;;;;;;;;;;;;;;;;;;6284009;28;19912;-76
2023/09/28 03:34:18;;;;;;;;;;;;;;;;;;6282240;28;19913;-75
2023/09/28 03:37:18;;;;;;;;;;;;;;;;;;6284497;28;19917;-76
2023/09/28 03:40:18;;;;;;;;;;;;;;;;;;6281254;28;20283;-76
2023/09/28 03:43:18;;;;;;;;;;;;;;;;;;6283571;28;19931;-76
2023/09/28 03:46:21;;;;;;;;;;;;;;;;;;6284883;28;19944;-76
2023/09/28 03:49:23;;;;;;;;;;;;;;;;;;6286102;28;20386;-76
2023/09/28 03:52:23;;;;;;;;;;;;;;;;;;6284867;28;19917;-75
2023/09/28 03:55:24;;;;;;;;;;;;;;;;;;6279846;28;19924;-75
2023/09/28 03:58:24;;;;;;;;;;;;;;;;;;6273438;28;19950;-76
2023/09/28 04:01:26;;;;;;;;;;;;;;;;;;6284349;28;19994;-76
2023/09/28 04:04:27;;;;;;;;;;;;;;;;;;6273121;28;19920;-76
2023/09/28 04:07:29;;;;;;;;;;;;;;;;;;6285109;28;19920;-76
2023/09/28 04:10:29;;;;;;;;;;;;;;;;;;6283194;28;20371;-77
2023/09/28 04:13:29;;;;;;;;;;;;;;;;;;6284700;28;19923;-76
2023/09/28 04:16:29;;;;;;;;;;;;;;;;;;6283639;28;19928;-76
2023/09/28 04:19:30;;;;;;;;;;;;;;;;;;6269299;28;19951;-76
2023/09/28 04:22:30;;;;;;;;;;;;;;;;;;6294294;28;20335;-76
2023/09/28 04:25:31;;;;;;;;;;;;;;;;;;6300034;28;19913;-77
2023/09/28 04:28:31;;;;;;;;;;;;;;;;;;6319170;28;19912;-76
2023/09/28 04:31:31;;;;;;;;;;;;;;;;;;6310442;28;19969;-77
2023/09/28 04:34:32;;;;;;;;;;;;;;;;;;6289010;28;20440;-76
2023/09/28 04:37:32;;;;;;;;;;;;;;;;;;6302281;28;19912;-77
2023/09/28 04:40:32;;;;;;;;;;;;;;;;;;6302217;28;19916;-77
2023/09/28 04:43:33;;;;;;;;;;;;;;;;;;6291452;28;19912;-76
2023/09/28 04:46:33;;;;;;;;;;;;;;;;;;6294309;28;20007;-77
2023/09/28 04:49:34;;;;;;;;;;;;;;;;;;6291161;28;19995;-76
2023/09/28 04:52:34;;;;;;;;;;;;;;;;;;6296293;28;19966;-76
2023/09/28 04:55:34;;;;;;;;;;;;;;;;;;6296895;28;19935;-76
2023/09/28 04:58:36;;;;;;;;;;;;;;;;;;6290995;28;19916;-76
2023/09/28 05:01:36;;;;;;;;;;;;;;;;;;6277630;28;19917;-77
2023/09/28 05:04:37;;;;;;;;;;;;;;;;;;6285208;28;19924;-76
2023/09/28 05:07:37;;;;;;;;;;;;;;;;;;6288968;28;19955;-77
2023/09/28 05:10:37;;;;;;;;;;;;;;;;;;6293596;28;20336;-75
2023/09/28 05:13:37;;;;;;;;;;;;;;;;;;6285063;28;20393;-76
2023/09/28 05:16:37;;;;;;;;;;;;;;;;;;6297374;28;19921;-76
2023/09/28 05:19:41;;;;;;;;;;;;;;;;;;6297301;28;20005;-76
2023/09/28 05:22:43;;;;;;;;;;;;;;;;;;6280158;28;20481;-76
2023/09/28 05:25:44;;;;;;;;;;;;;;;;;;6281498;28;19916;-76
2023/09/28 05:28:44;;;;;;;;;;;;;;;;;;6298645;28;20328;-75
2023/09/28 05:31:46;;;;;;;;;;;;;;;;;;6280465;28;19909;-75
2023/09/28 05:34:46;;;;;;;;;;;;;;;;;;6283062;28;20244;-75
2023/09/28 05:37:46;;;;;;;;;;;;;;;;;;6295905;28;20268;-77
2023/09/28 05:40:47;;;;;;;;;;;;;;;;;;6271103;28;19917;-76
2023/09/28 05:43:47;;;;;;;;;;;;;;;;;;6281268;28;20027;-77
2023/09/28 05:46:50;;;;;;;;;;;;;;;;;;6285129;28;19913;-76
2023/09/28 05:49:52;;;;;;;;;;;;;;;;;;6264740;28;19920;-76
2023/09/28 05:52:55;;;;;;;;;;;;;;;;;;6287157;28;19974;-76
2023/09/28 05:55:58;;;;;;;;;;;;;;;;;;6264292;28;20310;-76
2023/09/28 05:58:59;;;;;;;;;;;;;;;;;;6286262;28;19924;-76
2023/09/28 06:01:59;;;;;;;;;;;;;;;;;;6291436;28;20011;-83
2023/09/28 06:05:00;;;;;;;;;;;;;;;;;;6289124;28;19958;-83
2023/09/28 06:08:00;;;;;;;;;;;;;;;;;;6289846;28;19935;-81
2023/09/28 06:11:00;;;;;;;;;;;;;;;;;;6296036;28;19912;-81
2023/09/28 06:14:02;;;;;;;;;;;;;;;;;;6290351;28;19913;-81
2023/09/28 06:17:02;;;;;;;;;;;;;;;;;;6276158;28;19927;-81
2023/09/28 06:20:05;;;;;;;;;;;;;;;;;;6288752;28;20407;-81
2023/09/28 06:23:09;;;;;;;;;;;;;;;;;;6278804;28;20835;-82
2023/09/28 06:26:09;;;;;;;;;;;;;;;;;;6284247;28;19920;-82
2023/09/28 06:29:10;;;;;;;;;;;;;;;;;;6281074;28;19912;-83
2023/09/28 06:32:11;;;;;;;;;;;;;;;;;;6285169;28;19917;-82
2023/09/28 06:35:13;;;;;;;;;;;;;;;;;;6296787;28;19917;-82
2023/09/28 06:38:19;;;;;;;;;;;;;;;;;;6096370;28;10000135;-75
2023/09/28 06:41:20;;;;;;;;;;;;;;;;;;6254303;28;19920;-76
2023/09/28 06:44:20;;;;;;;;;;;;;;;;;;6274883;28;19912;-75
2023/09/28 06:47:20;;;;;;;;;;;;;;;;;;6295689;28;19917;-75
2023/09/28 06:50:20;;;;;;;;;;;;;;;;;;6276030;28;19932;-75
2023/09/28 06:53:21;;;;;;;;;;;;;;;;;;6296369;28;19920;-76
2023/09/28 06:56:21;;;;;;;;;;;;;;;;;;6297271;28;20358;-76
2023/09/28 06:59:21;;;;;;;;;;;;;;;;;;6277185;28;19913;-76
2023/09/28 07:02:23;;;;;;;;;;;;;;;;;;6296278;28;19971;-77
2023/09/28 07:05:24;;;;;;;;;;;;;;;;;;5591870;28;10000721;-76
2023/09/28 07:08:24;;;;;;;;;;;;;;;;;;6294212;28;20366;-76
2023/09/28 07:11:26;;;;;;;;;;;;;;;;;;6297295;28;19908;-76
2023/09/28 07:14:27;;;;;;;;;;;;;;;;;;6294232;28;19912;-76
2023/09/28 07:17:27;;;;;;;;;;;;;;;;;;6297243;28;19973;-76
2023/09/28 07:20:27;;;;;;;;;;;;;;;;;;6293117;28;19921;-75
2023/09/28 07:23:27;;;;;;;;;;;;;;;;;;6295672;28;19912;-75
2023/09/28 07:26:29;;;;;;;;;;;;;;;;;;6297378;28;20011;-75
2023/09/28 07:29:30;;;;;;;;;;;;;;;;;;6278776;28;19920;-76
2023/09/28 07:32:31;;;;;;;;;;;;;;;;;;6284296;28;19951;-76
2023/09/28 07:35:31;;;;;;;;;;;;;;;;;;6272377;28;19916;-76
2023/09/28 07:38:32;;;;;;;;;;;;;;;;;;6277719;28;20464;-75
2023/09/28 07:41:34;;;;;;;;;;;;;;;;;;6288032;28;19919;-76
2023/09/28 07:44:34;;;;;;;;;;;;;;;;;;6293288;28;19917;-76
2023/09/28 07:47:34;;;;;;;;;;;;;;;;;;6272108;28;19909;-76
2023/09/28 07:50:35;;;;;;;;;;;;;;;;;;6252707;28;19909;-74
2023/09/28 07:53:36;;;;;;;;;;;;;;;;;;6276363;28;19973;-76
2023/09/28 07:56:36;;;;;;;;;;;;;;;;;;6289468;28;20405;-75
2023/09/28 07:59:36;;;;;;;;;;;;;;;;;;6288087;28;19993;-75
2023/09/28 08:02:37;;;;;;;;;;;;;;;;;;6287300;28;19924;-76
2023/09/28 08:05:37;;;;;;;;;;;;;;;;;;6272893;28;19970;-75
2023/09/28 08:08:37;;;;;;;;;;;;;;;;;;6291257;28;19920;-75
2023/09/28 08:11:38;;;;;;;;;;;;;;;;;;6294209;28;20347;-75
2023/09/28 08:14:38;;;;;;;;;;;;;;;;;;6288131;28;20444;-75
2023/09/28 08:17:41;;;;;;;;;;;;;;;;;;6273958;28;19920;-74
2023/09/28 08:20:41;;;;;;;;;;;;;;;;;;6290897;28;19966;-74
2023/09/28 08:23:41;;;;;;;;;;;;;;;;;;6274950;28;19912;-74
2023/09/28 08:26:41;;;;;;;;;;;;;;;;;;6293414;28;19928;-74
2023/09/28 08:29:41;;;;;;;;;;;;;;;;;;6281906;28;20195;-74
2023/09/28 08:32:42;;;;;;;;;;;;;;;;;;6275635;28;20284;-74
2023/09/28 08:35:44;;;;;;;;;;;;;;;;;;6290095;28;20444;-76
2023/09/28 08:38:46;;;;;;;;;;;;;;;;;;6294086;28;20375;-75
2023/09/28 08:41:47;;;;;;;;;;;;;;;;;;5939779;28;9999697;-75
2023/09/28 08:44:47;;;;;;;;;;;;;;;;;;6289419;28;19924;-76
2023/09/28 08:47:48;;;;;;;;;;;;;;;;;;6280336;28;20007;-75
2023/09/28 08:50:49;;;;;;;;;;;;;;;;;;6300785;28;19916;-75
2023/09/28 08:53:50;;;;;;;;;;;;;;;;;;6301546;28;20050;-75
2023/09/28 08:56:52;;;;;;;;;;;;;;;;;;6297530;28;20008;-75
2023/09/28 08:59:52;;;;;;;;;;;;;;;;;;6295717;28;20290;-74
2023/09/28 09:02:52;;;;;;;;;;;;;;;;;;6271768;28;19928;-75
2023/09/28 09:05:52;;;;;;;;;;;;;;;;;;6282174;28;19912;-76
2023/09/28 09:08:53;;;;;;;;;;;;;;;;;;6272328;28;19912;-75
2023/09/28 09:11:53;;;;;;;;;;;;;;;;;;6279346;28;19952;-75
2023/09/28 09:14:57;;;;;;;;;;;;;;;;;;6267824;28;20007;-78
2023/09/28 09:17:59;;;;;;;;;;;;;;;;;;6279234;28;19920;-77
2023/09/28 09:21:00;;;;;;;;;;;;;;;;;;6285592;28;19978;-78
2023/09/28 09:24:01;;;;;;;;;;;;;;;;;;6294463;28;20268;-77
2023/09/28 09:27:02;;;;;;;;;;;;;;;;;;6269540;28;19913;-77
2023/09/28 09:30:03;;;;;;;;;;;;;;;;;;6278734;28;20465;-78
2023/09/28 09:33:04;;;;;;;;;;;;;;;;;;6271420;28;19912;-78
2023/09/28 09:36:05;;;;;;;;;;;;;;;;;;6288251;28;20015;-78
2023/09/28 09:39:06;;;;;;;;;;;;;;;;;;6289469;28;19935;-76
2023/09/28 09:42:08;;;;;;;;;;;;;;;;;;6296186;28;19916;-78
2023/09/28 09:45:10;;;;;;;;;;;;;;;;;;6298261;28;19920;-79
2023/09/28 09:48:10;;;;;;;;;;;;;;;;;;6286918;28;19908;-78
2023/09/28 09:51:10;;;;;;;;;;;;;;;;;;6300816;28;19962;-78
2023/09/28 09:54:11;;;;;;;;;;;;;;;;;;6297594;28;19961;-77
2023/09/28 09:57:11;;;;;;;;;;;;;;;;;;6294327;28;19916;-77
2023/09/28 10:00:15;;;;;;;;;;;;;;;;;;6288953;28;19935;-77
2023/09/28 10:03:16;;;;;;;;;;;;;;;;;;6298537;28;19920;-79
2023/09/28 10:06:16;;;;;;;;;;;;;;;;;;6299772;28;19947;-77
2023/09/28 10:09:16;;;;;;;;;;;;;;;;;;6281334;28;19958;-77
2023/09/28 10:12:16;;;;;;;;;;;;;;;;;;6300640;28;20293;-78
2023/09/28 10:15:16;;;;;;;;;;;;;;;;;;6300622;28;21318;-78
2023/09/28 10:18:17;;;;;;;;;;;;;;;;;;6297154;28;20442;-78
2023/09/28 10:21:18;;;;;;;;;;;;;;;;;;6298861;28;19909;-78
2023/09/28 10:24:20;;;;;;;;;;;;;;;;;;6280678;28;19932;-78
2023/09/28 10:27:21;;;;;;;;;;;;;;;;;;6297757;28;20002;-78
2023/09/28 10:30:22;;;;;;;;;;;;;;;;;;6299399;28;19909;-78
2023/09/28 10:33:25;;;;;;;;;;;;;;;;;;6278768;28;19909;-78
2023/09/28 10:36:28;;;;;;;;;;;;;;;;;;6273250;28;19915;-79
2023/09/28 10:39:28;;;;;;;;;;;;;;;;;;6280767;28;19908;-78
2023/09/28 10:42:30;;;;;;;;;;;;;;;;;;5947725;28;9999866;-77
2023/09/28 10:45:36;;;;;;;;;;;;;;;;;;6295842;28;20358;-78
2023/09/28 10:48:36;;;;;;;;;;;;;;;;;;6280485;28;19908;-78
2023/09/28 10:51:36;;;;;;;;;;;;;;;;;;6298380;28;19912;-78
2023/09/28 10:54:36;;;;;;;;;;;;;;;;;;6297347;28;19916;-78
2023/09/28 10:57:36;;;;;;;;;;;;;;;;;;6280132;28;19912;-79
2023/09/28 11:00:37;;;;;;;;;;;;;;;;;;6296508;28;19921;-76
2023/09/28 11:03:37;;;;;;;;;;;;;;;;;;6296773;28;19924;-78
2023/09/28 11:06:38;;;;;;;;;;;;;;;;;;6295625;28;19921;-78
2023/09/28 11:09:38;;;;;;;;;;;;;;;;;;6297106;28;19909;-76
2023/09/28 11:12:38;;;;;;;;;;;;;;;;;;6297597;28;19963;-77
2023/09/28 11:15:38;;;;;;;;;;;;;;;;;;6278032;28;20337;-79
2023/09/28 11:18:39;;;;;;;;;;;;;;;;;;6293351;28;19923;-77
2023/09/28 11:21:39;;;;;;;;;;;;;;;;;;6297106;28;19912;-77
2023/09/28 11:24:39;;;;;;;;;;;;;;;;;;6279459;28;19965;-78
2023/09/28 11:27:39;;;;;;;;;;;;;;;;;;6298421;28;19952;-78
2023/09/28 11:30:39;;;;;;;;;;;;;;;;;;6296736;28;19959;-78
2023/09/28 11:33:40;;;;;;;;;;;;;;;;;;6298365;28;19909;-77
2023/09/28 11:36:40;;;;;;;;;;;;;;;;;;6295276;28;20302;-77
2023/09/28 11:39:40;;;;;;;;;;;;;;;;;;6297151;28;19909;-78
2023/09/28 11:42:42;;;;;;;;;;;;;;;;;;6274694;28;19975;-78
2023/09/28 11:45:43;;;;;;;;;;;;;;;;;;6254742;28;19913;-78
2023/09/28 11:48:43;;;;;;;;;;;;;;;;;;6253790;28;20404;-79
2023/09/28 11:51:43;;;;;;;;;;;;;;;;;;6285226;28;19923;-78
2023/09/28 11:54:44;;;;;;;;;;;;;;;;;;6296608;28;20382;-78
2023/09/28 11:57:44;;;;;;;;;;;;;;;;;;6296910;28;19928;-78
2023/09/28 12:00:44;;;;;;;;;;;;;;;;;;6296657;28;19920;-78
2023/09/28 12:03:48;;;;;;;;;;;;;;;;;;6295631;28;19947;-78
2023/09/28 12:06:48;;;;;;;;;;;;;;;;;;6278017;28;19920;-79
2023/09/28 12:09:49;;;;;;;;;;;;;;;;;;6276807;28;19927;-79
2023/09/28 12:12:49;;;;;;;;;;;;;;;;;;6278383;28;19908;-78
2023/09/28 12:15:50;;;;;;;;;;;;;;;;;;6277003;28;19951;-77
2023/09/28 12:18:50;;;;;;;;;;;;;;;;;;6296042;28;20409;-79
2023/09/28 12:21:51;;;;;;;;;;;;;;;;;;6295749;28;19908;-78
2023/09/28 12:24:51;;;;;;;;;;;;;;;;;;6296384;28;20274;-79
2023/09/28 12:27:51;;;;;;;;;;;;;;;;;;6296726;28;19912;-78
2023/09/28 12:30:51;;;;;;;;;;;;;;;;;;6295152;28;19948;-78
2023/09/28 12:33:54;;;;;;;;;;;;;;;;;;6295362;28;19909;-78
2023/09/28 12:36:57;;;;;;;;;;;;;;;;;;6295684;28;19957;-78
2023/09/28 12:39:57;;;;;;;;;;;;;;;;;;6276019;28;20299;-78
2023/09/28 12:42:58;;;;;;;;;;;;;;;;;;6288137;28;19989;-77
2023/09/28 12:45:58;;;;;;;;;;;;;;;;;;6296080;28;19969;-78
2023/09/28 12:48:59;;;;;;;;;;;;;;;;;;6274738;28;20010;-77
2023/09/28 12:52:01;;;;;;;;;;;;;;;;;;6289734;28;19920;-77
2023/09/28 12:55:03;;;;;;;;;;;;;;;;;;6294601;28;19955;-77
2023/09/28 12:58:03;;;;;;;;;;;;;;;;;;6295324;28;19978;-78
2023/09/28 13:01:03;;;;;;;;;;;;;;;;;;6294343;28;20262;-78
2023/09/28 13:04:05;;;;;;;;;;;;;;;;;;6292441;28;19930;-78
2023/09/28 13:07:05;;;;;;;;;;;;;;;;;;6294316;28;20058;-78
2023/09/28 13:10:07;;;;;;;;;;;;;;;;;;6275251;28;19912;-78
2023/09/28 13:13:07;;;;;;;;;;;;;;;;;;6294438;28;19957;-78
2023/09/28 13:16:08;;;;;;;;;;;;;;;;;;6296215;28;19917;-78
2023/09/28 13:19:11;;;;;;;;;;;;;;;;;;6300133;28;19912;-79
2023/09/28 13:22:15;;;;;;;;;;;;;;;;;;6299278;28;19995;-79
2023/09/28 13:25:16;;;;;;;;;;;;;;;;;;6301799;28;20295;-78
2023/09/28 13:28:18;;;;;;;;;;;;;;;;;;6300622;28;21403;-79
2023/09/28 13:31:19;;;;;;;;;;;;;;;;;;6301680;28;19913;-78
2023/09/28 13:34:28;;;;;;;;;;;;;;;;;;6294109;28;20438;-80
2023/09/28 13:37:28;;;;;;;;;;;;;;;;;;6269416;28;19921;-79
2023/09/28 13:40:33;;;;;;;;;;;;;;;;;;6280344;28;20389;-79
2023/09/28 13:43:33;;;;;;;;;;;;;;;;;;6281007;28;19968;-79
2023/09/28 13:46:34;;;;;;;;;;;;;;;;;;6279423;28;19913;-80
2023/09/28 13:49:34;;;;;;;;;;;;;;;;;;6298009;28;19939;-79
2023/09/28 13:52:35;;;;;;;;;;;;;;;;;;6284662;28;19912;-79
2023/09/28 13:55:36;;;;;;;;;;;;;;;;;;6301661;28;20418;-79
2023/09/28 13:58:38;;;;;;;;;;;;;;;;;;6302518;28;19912;-79
2023/09/28 14:01:40;;;;;;;;;;;;;;;;;;6303725;28;19952;-79
2023/09/28 14:04:40;;;;;;;;;;;;;;;;;;6283488;28;19924;-78
2023/09/28 14:07:41;;;;;;;;;;;;;;;;;;6300356;28;20026;-80
2023/09/28 14:10:42;;;;;;;;;;;;;;;;;;6285672;28;19920;-79
2023/09/28 14:13:43;;;;;;;;;;;;;;;;;;6306544;28;20681;-78
2023/09/28 14:16:43;;;;;;;;;;;;;;;;;;6305266;28;19919;-79
2023/09/28 14:19:44;;;;;;;;;;;;;;;;;;6303367;28;19909;-79
2023/09/28 14:22:44;;;;;;;;;;;;;;;;;;6295929;28;19917;-80
2023/09/28 14:25:44;;;;;;;;;;;;;;;;;;6296657;28;20309;-79
2023/09/28 14:28:44;;;;;;;;;;;;;;;;;;6297545;28;19955;-79
2023/09/28 14:31:44;;;;;;;;;;;;;;;;;;6293228;28;19920;-80
2023/09/28 14:34:45;;;;;;;;;;;;;;;;;;6272924;28;19974;-80
2023/09/28 14:37:45;;;;;;;;;;;;;;;;;;6272328;28;19913;-77
2023/09/28 14:40:45;;;;;;;;;;;;;;;;;;6281604;28;20007;-79
2023/09/28 14:43:48;;;;;;;;;;;;;;;;;;6298028;28;19912;-79
2023/09/28 14:46:49;;;;;;;;;;;;;;;;;;6299331;28;19913;-79
2023/09/28 14:49:49;;;;;;;;;;;;;;;;;;6279349;28;19919;-78
2023/09/28 14:52:49;;;;;;;;;;;;;;;;;;6298255;28;20406;-78
2023/09/28 14:55:49;;;;;;;;;;;;;;;;;;6297377;28;20004;-78
2023/09/28 14:58:50;;;;;;;;;;;;;;;;;;6298688;28;19920;-78
2023/09/28 15:01:50;;;;;;;;;;;;;;;;;;6292747;28;19923;-78
2023/09/28 15:04:50;;;;;;;;;;;;;;;;;;6280270;28;19924;-78
2023/09/28 15:07:51;;;;;;;;;;;;;;;;;;6278384;28;20011;-78
2023/09/28 15:10:51;;;;;;;;;;;;;;;;;;6296813;28;19971;-78
2023/09/28 15:13:51;;;;;;;;;;;;;;;;;;6298427;28;20370;-77
2023/09/28 15:16:52;;;;;;;;;;;;;;;;;;6293888;28;19999;-77
2023/09/28 15:19:52;;;;;;;;;;;;;;;;;;6293172;28;19917;-77
2023/09/28 15:22:52;;;;;;;;;;;;;;;;;;6292532;28;20428;-77
2023/09/28 15:25:53;;;;;;;;;;;;;;;;;;6295282;28;20358;-77
2023/09/28 15:28:53;;;;;;;;;;;;;;;;;;6295220;28;20393;-78
2023/09/28 15:31:53;;;;;;;;;;;;;;;;;;6286829;28;19959;-78
2023/09/28 15:34:54;;;;;;;;;;;;;;;;;;6295866;28;19909;-79
2023/09/28 15:37:54;;;;;;;;;;;;;;;;;;6296892;28;19908;-78
2023/09/28 15:40:54;;;;;;;;;;;;;;;;;;6297072;28;19908;-78
2023/09/28 15:43:54;;;;;;;;;;;;;;;;;;6295631;28;19912;-78
2023/09/28 15:46:54;;;;;;;;;;;;;;;;;;6297098;28;19970;-79
2023/09/28 15:49:54;;;;;;;;;;;;;;;;;;6295664;28;19912;-78
2023/09/28 15:52:55;;;;;;;;;;;;;;;;;;6295110;28;19916;-78
2023/09/28 15:55:55;;;;;;;;;;;;;;;;;;6295149;28;19909;-78
2023/09/28 15:58:55;;;;;;;;;;;;;;;;;;6292544;28;19920;-77
2023/09/28 16:01:56;;;;;;;;;;;;;;;;;;6293036;28;19999;-77
2023/09/28 16:04:56;;;;;;;;;;;;;;;;;;6290141;28;19916;-78
2023/09/28 16:07:58;;;;;;;;;;;;;;;;;;6295196;28;20387;-78
2023/09/28 16:10:59;;;;;;;;;;;;;;;;;;6297276;28;19912;-77
2023/09/28 16:13:59;;;;;;;;;;;;;;;;;;6295474;28;19916;-77
2023/09/28 16:17:00;;;;;;;;;;;;;;;;;;6296962;28;19954;-76
2023/09/28 16:20:00;;;;;;;;;;;;;;;;;;6293395;28;19912;-77
2023/09/28 16:23:00;;;;;;;;;;;;;;;;;;6296608;28;20011;-77
2023/09/28 16:26:00;;;;;;;;;;;;;;;;;;6297327;28;19943;-77
2023/09/28 16:29:00;;;;;;;;;;;;;;;;;;6276003;28;19951;-76
2023/09/28 16:32:00;;;;;;;;;;;;;;;;;;6289530;28;19916;-77
2023/09/28 16:35:00;;;;;;;;;;;;;;;;;;6270656;28;19908;-76
2023/09/28 16:38:00;;;;;;;;;;;;;;;;;;6277228;28;19912;-76
2023/09/28 16:41:01;;;;;;;;;;;;;;;;;;6297658;28;19915;-76
2023/09/28 16:44:01;;;;;;;;;;;;;;;;;;6295650;28;20362;-76
2023/09/28 16:47:01;;;;;;;;;;;;;;;;;;6269758;28;19924;-77
2023/09/28 16:50:01;;;;;;;;;;;;;;;;;;6253123;28;19927;-77
2023/09/28 16:53:01;;;;;;;;;;;;;;;;;;6267369;28;19989;-74
2023/09/28 16:56:01;;;;;;;;;;;;;;;;;;6268780;28;20234;-75
2023/09/28 16:59:01;;;;;;;;;;;;;;;;;;6262376;28;20260;-73
2023/09/28 17:02:01;;;;;;;;;;;;;;;;;;6262728;28;19924;-74
2023/09/28 17:05:02;;;;;;;;;;;;;;;;;;6264573;28;20559;-75
2023/09/28 17:08:02;;;;;;;;;;;;;;;;;;6227063;28;19928;-73
2023/09/28 17:11:03;;;;;;;;;;;;;;;;;;6267080;28;19989;-73
2023/09/28 17:14:03;;;;;;;;;;;;;;;;;;6252027;28;20470;-69
2023/09/28 17:17:04;;;;;;;;;;;;;;;;;;6266111;28;21118;-72
2023/09/28 17:20:05;;;;;;;;;;;;;;;;;;6266850;28;20007;-72
2023/09/28 17:23:05;;;;;;;;;;;;;;;;;;6267624;28;20375;-71
2023/09/28 17:26:05;;;;;;;;;;;;;;;;;;6268393;28;20010;-72
2023/09/28 17:29:05;;;;;;;;;;;;;;;;;;6267201;28;19946;-71
2023/09/28 17:32:06;;;;;;;;;;;;;;;;;;6265508;28;19921;-71
2023/09/28 17:35:06;;;;;;;;;;;;;;;;;;6270251;28;20377;-72
2023/09/28 17:38:06;;;;;;;;;;;;;;;;;;6268383;28;20408;-76
2023/09/28 17:41:06;;;;;;;;;;;;;;;;;;6266256;28;20183;-72
2023/09/28 17:44:06;;;;;;;;;;;;;;;;;;6268451;28;20335;-72
2023/09/28 17:47:08;;;;;;;;;;;;;;;;;;6266713;28;19924;-73
2023/09/28 17:50:09;;;;;;;;;;;;;;;;;;6265759;28;19928;-71
2023/09/28 17:53:09;;;;;;;;;;;;;;;;;;6269397;28;19920;-71
2023/09/28 17:56:09;;;;;;;;;;;;;;;;;;6270959;28;19920;-73
2023/09/28 17:59:10;;;;;;;;;;;;;;;;;;6263521;28;20035;-71
2023/09/28 18:02:11;;;;;;;;;;;;;;;;;;6269659;28;19925;-74
2023/09/28 18:05:11;;;;;;;;;;;;;;;;;;6268598;28;20374;-70
2023/09/28 18:08:11;;;;;;;;;;;;;;;;;;6270138;28;19931;-72
2023/09/28 18:11:11;;;;;;;;;;;;;;;;;;6267528;28;20338;-71
2023/09/28 18:14:12;;;;;;;;;;;;;;;;;;6279933;28;20332;-72
2023/09/28 18:17:12;;;;;;;;;;;;;;;;;;6281611;28;19913;-72
2023/09/28 18:20:12;;;;;;;;;;;;;;;;;;5931805;28;10000453;-72
2023/09/28 18:23:13;;;;;;;;;;;;;;;;;;6287689;28;19925;-72
2023/09/28 18:26:13;;;;;;;;;;;;;;;;;;6280393;28;19919;-72
2023/09/28 18:29:13;;;;;;;;;;;;;;;;;;6279071;28;20007;-72
2023/09/28 18:32:14;;;;;;;;;;;;;;;;;;6263231;28;19951;-72
2023/09/28 18:35:15;;;;;;;;;;;;;;;;;;6280669;28;19917;-72
2023/09/28 18:38:16;;;;;;;;;;;;;;;;;;6270435;28;20370;-71
2023/09/28 18:41:16;;;;;;;;;;;;;;;;;;6281266;28;19924;-72
2023/09/28 18:44:16;;;;;;;;;;;;;;;;;;6266662;28;19978;-72
2023/09/28 18:47:16;;;;;;;;;;;;;;;;;;6290029;28;19963;-71
2023/09/28 18:50:17;;;;;;;;;;;;;;;;;;6295274;28;19908;-72
2023/09/28 18:53:17;;;;;;;;;;;;;;;;;;6295241;28;19916;-72
2023/09/28 18:56:17;;;;;;;;;;;;;;;;;;6293145;28;19912;-72
2023/09/28 18:59:20;;;;;;;;;;;;;;;;;;6290991;28;19916;-71
2023/09/28 19:02:20;;;;;;;;;;;;;;;;;;6284312;28;20020;-72
2023/09/28 19:05:20;;;;;;;;;;;;;;;;;;6282180;28;19931;-70
2023/09/28 19:08:20;;;;;;;;;;;;;;;;;;6281761;28;19940;-71
2023/09/28 19:11:20;;;;;;;;;;;;;;;;;;6276872;28;19977;-72
2023/09/28 19:14:20;;;;;;;;;;;;;;;;;;6262972;28;19976;-72
2023/09/28 19:17:20;;;;;;;;;;;;;;;;;;6276431;28;20010;-71
2023/09/28 19:20:21;;;;;;;;;;;;;;;;;;6263770;28;19924;-71
2023/09/28 19:23:23;;;;;;;;;;;;;;;;;;6278572;28;19966;-72
2023/09/28 19:26:23;;;;;;;;;;;;;;;;;;6280630;28;19927;-72
2023/09/28 19:29:23;;;;;;;;;;;;;;;;;;6277396;28;20091;-73
2023/09/28 19:32:23;;;;;;;;;;;;;;;;;;6277976;28;19956;-72
2023/09/28 19:35:24;;;;;;;;;;;;;;;;;;6259636;28;19993;-72
2023/09/28 19:38:24;;;;;;;;;;;;;;;;;;6276743;28;20390;-72
2023/09/28 19:41:27;;;;;;;;;;;;;;;;;;6281361;28;19985;-72
2023/09/28 19:44:27;;;;;;;;;;;;;;;;;;6279702;28;19966;-72
2023/09/28 19:47:27;;;;;;;;;;;;;;;;;;6282544;28;19921;-71
2023/09/28 19:50:27;;;;;;;;;;;;;;;;;;6264915;28;19939;-73
2023/09/28 19:53:28;;;;;;;;;;;;;;;;;;6279092;28;20015;-71
2023/09/28 19:56:29;;;;;;;;;;;;;;;;;;6287980;28;20355;-72
2023/09/28 19:59:29;;;;;;;;;;;;;;;;;;6269766;28;19920;-72
2023/09/28 20:02:29;;;;;;;;;;;;;;;;;;6278183;28;19958;-72
2023/09/28 20:05:29;;;;;;;;;;;;;;;;;;6276410;28;19924;-72
2023/09/28 20:08:29;;;;;;;;;;;;;;;;;;6279085;28;19931;-73
2023/09/28 20:11:30;;;;;;;;;;;;;;;;;;6279297;28;19982;-72
2023/09/28 20:14:30;;;;;;;;;;;;;;;;;;6273883;28;19991;-71
2023/09/28 20:17:30;;;;;;;;;;;;;;;;;;6254464;28;20123;-73
2023/09/28 20:20:30;;;;;;;;;;;;;;;;;;6273338;28;19916;-73
2023/09/28 20:23:30;;;;;;;;;;;;;;;;;;6279548;28;19940;-73
2023/09/28 20:26:31;;;;;;;;;;;;;;;;;;6277534;28;19967;-73
2023/09/28 20:29:31;;;;;;;;;;;;;;;;;;6261937;28;20316;-73